Time;durP1;ratioP1;P1;durP2;ratioP2;P2;SDS_P1;SDS_P2;PMS_P1;PMS_P2;Temp;Humidity;BMP_temperature;BMP_pressure;BME280_temperature;BME280_humidity;BME280_pressure;Samples;Min_cycle;Max_cycle;Signal;HPM_P1;HPM_P2
2021/09/15 00:02:02;;;;;;;14.18;11.55;;;;;;;21.33;96.59;98452.25;4893896;28;102832;-67
2021/09/15 00:04:30;;;;;;;15.32;13.05;;;;;;;21.34;96.05;98451.25;4896370;28;102701;-65
2021/09/15 00:06:58;;;;;;;11.13;10.13;;;;;;;21.44;95.78;98455.53;4896354;28;103287;-66
2021/09/15 00:09:25;;;;;;;10.40;9.50;;;;;;;21.51;95.06;98451.06;4900860;28;103305;-67
2021/09/15 00:11:54;;;;;;;9.38;8.57;;;;;;;21.56;94.23;98456.72;4899355;28;102744;-67
2021/09/15 00:14:22;;;;;;;10.32;9.32;;;;;;;21.60;93.85;98456.16;4897475;28;102641;-66
2021/09/15 00:16:52;;;;;;;9.98;9.07;;;;;;;21.66;93.56;98452.72;4897866;28;103287;-69
2021/09/15 00:19:20;;;;;;;9.20;8.38;;;;;;;21.73;92.50;98455.50;4895327;28;103195;-70
2021/09/15 00:21:48;;;;;;;7.93;7.32;;;;;;;21.78;92.36;98458.47;4900800;28;102710;-70
2021/09/15 00:24:16;;;;;;;7.40;6.70;;;;;;;21.82;92.16;98460.59;4894741;28;104083;-66
2021/09/15 00:26:44;;;;;;;7.38;6.78;;;;;;;21.85;93.66;98464.75;4899797;28;103033;-67
2021/09/15 00:29:12;;;;;;;15.10;13.80;;;;;;;21.55;96.37;98457.75;4903600;28;103271;-67
2021/09/15 00:31:40;;;;;;;19.80;13.95;;;;;;;21.08;100.00;98441.97;4898056;28;102573;-67
2021/09/15 00:34:09;;;;;;;12.57;11.18;;;;;;;21.01;100.00;98428.41;4900585;28;102931;-67
2021/09/15 00:36:37;;;;;;;12.40;11.07;;;;;;;21.23;100.00;98440.97;4896570;28;103266;-68
2021/09/15 00:39:05;;;;;;;16.02;14.32;;;;;;;20.88;100.00;98430.06;4901367;28;103236;-68
2021/09/15 00:41:33;;;;;;;13.27;11.35;;;;;;;21.03;100.00;98426.34;4897974;28;103679;-68
2021/09/15 00:44:07;;;;;;;9.25;8.35;;;;;;;21.16;100.00;98423.09;4901078;28;103072;-68
2021/09/15 00:46:38;;;;;;;10.05;9.15;;;;;;;21.36;100.00;98427.72;4900291;28;104056;-68
2021/09/15 00:49:07;;;;;;;9.73;8.93;;;;;;;21.34;100.00;98429.75;4912939;28;103345;-67
2021/09/15 00:51:40;;;;;;;11.48;9.55;;;;;;;21.42;100.00;98436.06;4901520;28;102737;-67
2021/09/15 00:54:15;;;;;;;12.25;10.88;;;;;;;21.45;100.00;98435.66;4901025;28;103960;-67
2021/09/15 00:56:44;;;;;;;13.20;11.85;;;;;;;21.43;100.00;98429.66;4897787;28;103970;-68
2021/09/15 00:59:12;;;;;;;9.25;8.45;;;;;;;21.39;100.00;98446.16;4896605;28;103227;-66
2021/09/15 01:01:40;;;;;;;8.23;7.53;;;;;;;21.48;100.00;98448.75;4890513;28;102809;-67
2021/09/15 01:04:09;;;;;;;9.13;8.20;;;;;;;21.56;99.87;98443.28;4903206;28;102800;-68
2021/09/15 01:06:44;;;;;;;11.80;10.60;;;;;;;21.51;100.00;98434.94;4894641;28;103795;-67
2021/09/15 01:09:14;;;;;;;8.43;7.72;;;;;;;21.49;100.00;98432.44;4898468;28;103263;-67
2021/09/15 01:11:44;;;;;;;15.43;13.65;;;;;;;20.77;100.00;98426.78;4903121;28;102837;-67
2021/09/15 01:14:23;;;;;;;13.05;11.85;;;;;;;20.62;100.00;98422.38;4898676;28;103156;-67
2021/09/15 01:17:09;;;;;;;9.50;8.52;;;;;;;20.96;100.00;98419.22;4897930;28;103249;-66
2021/09/15 01:19:57;;;;;;;11.35;10.35;;;;;;;20.93;100.00;98409.69;4895874;28;103997;-66
2021/09/15 01:22:48;;;;;;;12.40;11.30;;;;;;;20.89;100.00;98407.53;4915666;28;103180;-67
2021/09/15 01:25:54;;;;;;;8.50;7.80;;;;;;;21.12;100.00;98414.56;4845295;28;102941;-65
2021/09/15 01:28:57;;;;;;;8.73;7.97;;;;;;;21.21;100.00;98418.84;4841666;28;103359;-66
2021/09/15 01:31:25;;;;;;;14.13;12.82;;;;;;;21.01;100.00;98411.44;4872698;28;103245;-66
2021/09/15 01:33:53;;;;;;;14.68;13.30;;;;;;;20.76;100.00;98410.84;4911668;28;103025;-66
2021/09/15 01:36:21;;;;;;;10.65;9.68;;;;;;;20.77;100.00;98409.84;4898038;28;103611;-66
2021/09/15 01:38:51;;;;;;;11.82;9.80;;;;;;;20.75;100.00;98406.50;4902145;28;106253;-66
2021/09/15 01:41:20;;;;;;;11.63;10.60;;;;;;;20.56;100.00;98407.84;4898051;28;103451;-65
2021/09/15 01:43:52;;;;;;;8.80;8.02;;;;;;;20.86;100.00;98398.00;4897597;28;103154;-65
2021/09/15 01:46:20;;;;;;;7.40;6.72;;;;;;;20.91;100.00;98395.63;4898507;28;102749;-65
2021/09/15 01:48:48;;;;;;;6.88;6.15;;;;;;;21.06;100.00;98393.78;4899126;28;103180;-66
2021/09/15 01:51:15;;;;;;;7.95;7.25;;;;;;;21.08;100.00;98396.31;4893695;28;103311;-67
2021/09/15 01:53:43;;;;;;;9.75;7.80;;;;;;;21.16;100.00;98398.91;4902138;28;102793;-66
2021/09/15 01:56:15;;;;;;;8.68;7.97;;;;;;;21.07;100.00;98400.84;4901191;28;102747;-69
2021/09/15 01:59:21;;;;;;;9.45;8.55;;;;;;;20.87;100.00;98391.63;4896306;28;103346;-68
2021/09/15 02:02:11;;;;;;;9.05;8.23;;;;;;;20.83;100.00;98390.31;4891736;28;103190;-68
2021/09/15 02:04:55;;;;;;;10.63;9.45;;;;;;;20.69;100.00;98385.75;4897629;28;102885;-67
2021/09/15 02:07:36;;;;;;;10.35;9.35;;;;;;;20.63;100.00;98391.88;4901675;28;102745;-68
2021/09/15 02:10:39;;;;;;;9.57;8.55;;;;;;;20.64;100.00;98377.41;4877987;28;103334;-68
2021/09/15 02:13:10;;;;;;;10.10;9.02;;;;;;;20.75;100.00;98374.28;4890654;28;103406;-67
2021/09/15 02:15:38;;;;;;;9.80;8.82;;;;;;;20.77;100.00;98377.66;4913453;28;102741;-67
2021/09/15 02:18:07;;;;;;;7.65;7.00;;;;;;;20.78;100.00;98376.59;4899085;28;102833;-67
2021/09/15 02:20:57;;;;;;;7.88;7.10;;;;;;;20.85;100.00;98374.88;4892354;28;103446;-66
2021/09/15 02:23:44;;;;;;;10.57;9.55;;;;;;;20.80;100.00;98380.78;4898497;28;103204;-67
2021/09/15 02:26:26;;;;;;;10.32;9.38;;;;;;;20.81;100.00;98374.41;4901940;28;102841;-66
2021/09/15 02:28:57;;;;;;;11.15;10.05;;;;;;;20.81;100.00;98378.94;4895039;28;104111;-68
2021/09/15 02:31:35;;;;;;;9.15;8.25;;;;;;;20.85;100.00;98374.88;4894883;28;103605;-65
2021/09/15 02:34:19;;;;;;;13.98;12.57;;;;;;;20.72;100.00;98367.44;4897395;28;103518;-67
2021/09/15 02:37:07;;;;;;;13.82;12.43;;;;;;;20.44;100.00;98354.78;4898768;28;102838;-65
2021/09/15 02:39:50;;;;;;;9.23;8.32;;;;;;;20.58;100.00;98368.25;4899665;28;102925;-65
2021/09/15 02:42:38;;;;;;;8.02;7.22;;;;;;;20.77;100.00;98366.91;4895566;28;103524;-68
2021/09/15 02:45:13;;;;;;;8.68;7.93;;;;;;;20.87;100.00;98372.84;4909535;28;103376;-67
2021/09/15 02:47:50;;;;;;;12.73;9.75;;;;;;;20.87;100.00;98370.16;4899264;28;102721;-67
2021/09/15 02:50:33;;;;;;;12.13;11.02;;;;;;;20.57;100.00;98360.38;4910131;28;103050;-65
2021/09/15 02:53:21;;;;;;;14.20;11.35;;;;;;;20.42;100.00;98356.81;4898597;28;103422;-66
2021/09/15 02:55:58;;;;;;;8.65;7.82;;;;;;;20.60;100.00;98360.03;4897116;28;103245;-66
2021/09/15 02:58:45;;;;;;;11.35;10.23;;;;;;;20.61;100.00;98357.16;4909215;28;102777;-66
2021/09/15 03:01:29;;;;;;;9.23;8.32;;;;;;;20.67;100.00;98366.31;4906603;28;103974;-66
2021/09/15 03:04:10;;;;;;;10.35;9.32;;;;;;;20.70;100.00;98363.28;4898265;28;105376;-66
2021/09/15 03:07:00;;;;;;;11.32;10.27;;;;;;;20.62;100.00;98364.19;4910767;28;103230;-66
2021/09/15 03:09:33;;;;;;;11.38;10.35;;;;;;;20.66;100.00;98365.47;4899650;28;102754;-66
2021/09/15 03:12:02;;;;;;;13.73;11.88;;;;;;;20.57;100.00;98366.59;4891824;28;102740;-66
2021/09/15 03:14:32;;;;;;;11.05;10.05;;;;;;;20.64;100.00;98362.16;4911354;28;103270;-66
2021/09/15 03:17:01;;;;;;;11.68;10.57;;;;;;;20.63;100.00;98359.66;4895446;28;105067;-66
2021/09/15 03:19:30;;;;;;;13.43;12.18;;;;;;;20.22;100.00;98372.53;4894711;28;102778;-67
2021/09/15 03:21:59;;;;;;;13.98;12.60;;;;;;;20.09;100.00;98361.59;4913354;28;102679;-68
2021/09/15 03:24:29;;;;;;;12.50;11.30;;;;;;;20.16;100.00;98362.53;4895999;28;103352;-68
2021/09/15 03:26:58;;;;;;;9.93;9.05;;;;;;;20.38;100.00;98350.97;4894361;28;103432;-68
2021/09/15 03:29:26;;;;;;;13.20;10.50;;;;;;;20.32;100.00;98359.78;4893530;28;102769;-68
2021/09/15 03:31:54;;;;;;;15.75;11.85;;;;;;;20.38;100.00;98366.25;4897713;28;103371;-67
2021/09/15 03:34:24;;;;;;;12.00;10.80;;;;;;;20.27;100.00;98358.66;4898270;28;103357;-68
2021/09/15 03:36:53;;;;;;;10.02;9.05;;;;;;;20.35;100.00;98369.31;4900058;28;103791;-68
2021/09/15 03:39:22;;;;;;;12.20;11.00;;;;;;;20.27;100.00;98364.00;4903560;28;103103;-68
2021/09/15 03:41:51;;;;;;;13.32;11.65;;;;;;;20.11;100.00;98360.38;4912168;28;103971;-68
2021/09/15 03:44:19;;;;;;;13.50;11.00;;;;;;;19.94;100.00;98358.84;4914318;28;105472;-68
2021/09/15 03:46:47;;;;;;;12.80;11.60;;;;;;;19.87;100.00;98357.88;4894053;28;105557;-69
2021/09/15 03:49:15;;;;;;;9.40;8.50;;;;;;;19.98;100.00;98354.78;4913029;28;102857;-70
2021/09/15 03:51:46;;;;;;;13.75;11.38;;;;;;;19.92;100.00;98350.16;4897948;28;104161;-80
2021/09/15 03:54:14;;;;;;;14.73;11.55;;;;;;;19.82;100.00;98354.88;4912153;28;103064;-79
2021/09/15 03:56:43;;;;;;;13.45;11.48;;;;;;;19.84;100.00;98352.03;4898102;28;103312;-69
2021/09/15 03:59:11;;;;;;;12.75;10.90;;;;;;;19.88;100.00;98354.19;4900665;28;102746;-69
2021/09/15 04:01:39;;;;;;;12.80;10.57;;;;;;;19.84;100.00;98355.56;4898245;28;104137;-69
2021/09/15 04:04:08;;;;;;;16.25;13.43;;;;;;;19.63;100.00;98347.31;4898928;28;103991;-70
2021/09/15 04:06:36;;;;;;;14.25;12.98;;;;;;;19.65;100.00;98353.31;4897550;28;103796;-64
2021/09/15 04:09:08;;;;;;;13.85;12.48;;;;;;;19.60;100.00;98355.69;4900086;28;102662;-63
2021/09/15 04:11:39;;;;;;;13.65;12.15;;;;;;;19.57;100.00;98348.84;4902586;28;102910;-64
2021/09/15 04:14:07;;;;;;;12.48;10.88;;;;;;;19.68;100.00;98347.59;4907391;28;103306;-64
2021/09/15 04:16:35;;;;;;;12.77;11.48;;;;;;;19.62;100.00;98348.31;4900382;28;103079;-64
2021/09/15 04:19:03;;;;;;;13.98;11.60;;;;;;;19.69;100.00;98357.31;4903643;28;102952;-64
2021/09/15 04:21:34;;;;;;;10.05;9.05;;;;;;;19.97;100.00;98361.16;4897115;28;102760;-63
2021/09/15 04:24:27;;;;;;;9.65;8.73;;;;;;;20.10;100.00;98364.06;4900948;28;103864;-63
2021/09/15 04:32:28;;;;;;;11.70;10.52;;;;;;;19.76;100.00;98371.66;4901066;28;102937;-67
2021/09/15 04:34:57;;;;;;;12.35;11.20;;;;;;;19.58;100.00;98369.28;4898130;28;104143;-65
2021/09/15 04:37:25;;;;;;;10.20;9.30;;;;;;;19.80;100.00;98372.16;4905723;28;103291;-66
2021/09/15 04:39:53;;;;;;;11.30;10.10;;;;;;;19.76;100.00;98368.97;4919771;28;102905;-66
2021/09/15 04:42:23;;;;;;;9.07;8.27;;;;;;;19.99;100.00;98372.53;4898333;28;104133;-66
2021/09/15 04:44:52;;;;;;;7.68;6.88;;;;;;;20.02;100.00;98382.91;4898774;28;105184;-65
2021/09/15 04:47:21;;;;;;;7.15;6.53;;;;;;;20.18;100.00;98371.25;4893099;28;103270;-65
2021/09/15 04:49:50;;;;;;;6.95;6.35;;;;;;;20.21;100.00;98382.44;4913747;28;102670;-65
2021/09/15 04:52:19;;;;;;;13.70;11.27;;;;;;;19.97;100.00;98387.97;4891825;28;104776;-65
2021/09/15 04:54:47;;;;;;;10.43;9.43;;;;;;;19.99;100.00;98383.25;4916748;28;103497;-65
2021/09/15 04:57:15;;;;;;;9.88;8.57;;;;;;;20.13;100.00;98389.69;4898264;28;103673;-66
2021/09/15 04:59:45;;;;;;;7.50;6.88;;;;;;;20.25;100.00;98396.34;4884954;28;102890;-66
2021/09/15 05:02:13;;;;;;;7.13;6.43;;;;;;;20.31;100.00;98386.75;4895214;28;102758;-67
2021/09/15 05:04:43;;;;;;;11.02;9.73;;;;;;;20.32;100.00;98394.63;4890092;28;103274;-68
2021/09/15 05:07:22;;;;;;;7.82;7.03;;;;;;;20.33;100.00;98390.09;4908217;28;103240;-67
2021/09/15 05:09:51;;;;;;;11.85;8.15;;;;;;;20.37;100.00;98405.66;4913231;28;103233;-67
2021/09/15 05:12:19;;;;;;;9.75;8.48;;;;;;;20.34;100.00;98418.59;4911496;28;104309;-66
2021/09/15 05:14:50;;;;;;;8.82;8.02;;;;;;;20.43;100.00;98417.53;4900376;28;103209;-66
2021/09/15 05:17:18;;;;;;;13.52;10.25;;;;;;;20.38;100.00;98419.91;4897477;28;103256;-66
2021/09/15 05:19:47;;;;;;;8.85;8.00;;;;;;;20.40;100.00;98416.03;4893299;28;102796;-66
2021/09/15 05:22:15;;;;;;;7.75;7.05;;;;;;;20.43;100.00;98423.72;4895313;28;104133;-66
2021/09/15 05:24:43;;;;;;;9.00;8.13;;;;;;;20.49;100.00;98412.25;4897044;28;104354;-67
2021/09/15 05:27:11;;;;;;;9.13;8.25;;;;;;;20.37;100.00;98418.22;4896285;28;103170;-67
2021/09/15 05:29:39;;;;;;;7.30;6.60;;;;;;;20.34;100.00;98413.22;4912996;28;102693;-66
2021/09/15 05:32:10;;;;;;;8.30;7.57;;;;;;;20.41;100.00;98419.53;4913137;28;104216;-67
2021/09/15 05:34:39;;;;;;;6.80;6.20;;;;;;;20.48;100.00;98420.50;4897874;28;103839;-67
2021/09/15 05:37:07;;;;;;;6.07;5.47;;;;;;;20.53;100.00;98421.63;4894363;28;105279;-68
2021/09/15 05:39:36;;;;;;;6.88;6.28;;;;;;;20.50;100.00;98423.81;4916829;28;102706;-67
2021/09/15 05:42:04;;;;;;;10.88;8.43;;;;;;;20.51;100.00;98420.97;4911789;28;102857;-66
2021/09/15 05:44:32;;;;;;;6.50;5.90;;;;;;;20.56;100.00;98417.75;4892568;28;103889;-67
2021/09/15 05:47:01;;;;;;;6.00;5.47;;;;;;;20.62;100.00;98417.88;4895178;28;103369;-66
2021/09/15 05:49:34;;;;;;;6.00;5.50;;;;;;;20.66;100.00;98426.41;4913345;28;102872;-66
2021/09/15 05:52:03;;;;;;;10.32;8.00;;;;;;;20.49;100.00;98416.81;4898037;28;104266;-65
2021/09/15 05:54:31;;;;;;;7.97;7.20;;;;;;;20.37;100.00;98426.28;4899017;28;103553;-65
2021/09/15 05:56:59;;;;;;;5.75;5.28;;;;;;;20.45;100.00;98421.69;4895291;28;103287;-65
2021/09/15 05:59:27;;;;;;;5.40;4.90;;;;;;;20.48;100.00;98420.50;4893668;28;102709;-67
2021/09/15 06:01:55;;;;;;;7.05;6.35;;;;;;;20.40;100.00;98420.56;4897113;28;102955;-66
2021/09/15 06:04:24;;;;;;;5.80;5.30;;;;;;;20.43;100.00;98418.38;4898594;28;103346;-66
2021/09/15 06:07:10;;;;;;;5.03;4.55;;;;;;;20.53;100.00;98428.84;4894045;28;103251;-66
2021/09/15 06:09:39;;;;;;;4.50;4.10;;;;;;;20.52;100.00;98432.56;4902668;28;102707;-64
2021/09/15 06:12:07;;;;;;;4.60;4.20;;;;;;;20.51;100.00;98430.88;4914926;28;104063;-64
2021/09/15 06:14:38;;;;;;;5.47;4.90;;;;;;;20.50;100.00;98429.19;4896073;28;103545;-66
2021/09/15 06:17:07;;;;;;;5.45;4.85;;;;;;;20.45;100.00;98439.63;4900732;28;103234;-65
2021/09/15 06:19:35;;;;;;;7.68;5.30;;;;;;;20.54;100.00;98441.25;4894517;28;102744;-64
2021/09/15 06:22:23;;;;;;;5.18;4.68;;;;;;;20.62;100.00;98443.88;4900109;28;102835;-64
2021/09/15 06:25:10;;;;;;;5.22;4.72;;;;;;;20.65;100.00;98440.81;4900671;28;105453;-65
2021/09/15 06:27:40;;;;;;;4.55;4.15;;;;;;;20.68;100.00;98448.50;4900403;28;106074;-65
2021/09/15 06:30:11;;;;;;;5.68;5.18;;;;;;;20.61;100.00;98447.53;4915477;28;102725;-65
2021/09/15 06:32:40;;;;;;;4.57;4.18;;;;;;;20.61;100.00;98436.81;4900886;28;103038;-67
2021/09/15 06:35:12;;;;;;;7.03;6.32;;;;;;;20.49;100.00;98432.91;4899990;28;103543;-66
2021/09/15 06:37:42;;;;;;;5.10;4.60;;;;;;;20.37;100.00;98428.97;4898248;28;103195;-65
2021/09/15 06:40:11;;;;;;;6.50;5.90;;;;;;;20.51;100.00;98430.88;4913935;28;102729;-64
2021/09/15 06:42:39;;;;;;;5.68;5.18;;;;;;;20.62;100.00;98433.13;4900743;28;103070;-65
2021/09/15 06:45:08;;;;;;;9.48;8.52;;;;;;;20.35;100.00;98439.03;4894531;28;103889;-65
2021/09/15 06:47:40;;;;;;;8.32;6.55;;;;;;;20.47;100.00;98434.91;4896793;28;103215;-64
2021/09/15 06:50:09;;;;;;;6.53;5.97;;;;;;;20.60;100.00;98427.13;4889107;28;102958;-64
2021/09/15 06:52:38;;;;;;;7.75;6.47;;;;;;;20.61;100.00;98431.44;4896044;28;104406;-65
2021/09/15 06:55:09;;;;;;;6.95;6.35;;;;;;;20.56;100.00;98428.47;4898272;28;103354;-66
2021/09/15 06:57:38;;;;;;;6.95;6.25;;;;;;;20.58;100.00;98432.63;4897107;28;103373;-65
2021/09/15 07:00:10;;;;;;;7.22;6.53;;;;;;;20.66;100.00;98424.53;4897507;28;102652;-65
2021/09/15 07:02:39;;;;;;;10.50;7.57;;;;;;;20.56;100.00;98417.75;4899260;28;102762;-64
2021/09/15 07:05:08;;;;;;;9.15;7.50;;;;;;;20.47;100.00;98419.66;4902766;28;104543;-65
2021/09/15 07:07:35;;;;;;;7.55;5.95;;;;;;;20.62;100.00;98422.38;4900634;28;103251;-65
2021/09/15 07:10:05;;;;;;;8.50;6.90;;;;;;;20.66;100.00;98418.34;4901284;28;103731;-65
2021/09/15 07:12:36;;;;;;;8.38;7.57;;;;;;;20.66;100.00;98407.59;4901854;28;103893;-65
2021/09/15 07:15:04;;;;;;;7.22;6.57;;;;;;;20.59;100.00;98406.66;4901632;28;103335;-64
2021/09/15 07:17:33;;;;;;;11.05;8.02;;;;;;;20.42;100.00;98399.75;4915042;28;103245;-65
2021/09/15 07:20:01;;;;;;;7.65;6.82;;;;;;;20.49;100.00;98403.41;4898063;28;102733;-65
2021/09/15 07:22:29;;;;;;;6.30;5.70;;;;;;;20.51;100.00;98404.03;4902877;28;104010;-65
2021/09/15 07:24:57;;;;;;;7.65;6.53;;;;;;;20.51;100.00;98402.19;4896568;28;104360;-66
2021/09/15 07:27:25;;;;;;;6.75;6.15;;;;;;;20.32;100.00;98404.53;4902686;28;103366;-67
2021/09/15 07:29:55;;;;;;;7.95;6.50;;;;;;;20.47;100.00;98414.28;4902162;28;102893;-66
2021/09/15 07:32:27;;;;;;;6.13;5.53;;;;;;;20.57;100.00;98412.22;4902960;28;102673;-66
2021/09/15 07:34:55;;;;;;;5.13;4.63;;;;;;;20.69;100.00;98428.69;4903607;28;103326;-66
2021/09/15 07:37:23;;;;;;;6.45;5.72;;;;;;;20.69;100.00;98428.69;4902093;28;103206;-66
2021/09/15 07:39:53;;;;;;;5.70;5.20;;;;;;;20.59;100.00;98422.75;4901181;28;102648;-67
2021/09/15 07:42:21;;;;;;;6.80;6.10;;;;;;;20.63;100.00;98419.50;4901359;28;104036;-66
2021/09/15 07:44:49;;;;;;;8.85;7.95;;;;;;;20.14;100.00;98429.75;4901302;28;103410;-67
2021/09/15 07:47:19;;;;;;;6.35;5.75;;;;;;;20.44;100.00;98429.91;4903960;28;103177;-66
2021/09/15 07:49:49;;;;;;;9.00;7.20;;;;;;;20.51;100.00;98433.56;4897054;28;103029;-65
2021/09/15 07:52:17;;;;;;;6.22;5.63;;;;;;;20.59;100.00;98444.22;4903171;28;102851;-64
2021/09/15 07:54:45;;;;;;;6.78;6.10;;;;;;;20.69;100.00;98439.41;4901365;28;104078;-64
2021/09/15 07:57:14;;;;;;;10.93;7.80;;;;;;;20.67;100.00;98431.56;4901231;28;103255;-66
2021/09/15 07:59:43;;;;;;;7.43;5.95;;;;;;;20.57;100.00;98424.78;4899342;28;102879;-65
2021/09/15 08:02:11;;;;;;;10.18;7.57;;;;;;;20.40;100.00;98428.59;4898571;28;102756;-67
2021/09/15 08:04:41;;;;;;;8.02;7.25;;;;;;;20.56;100.00;98415.06;4895643;28;103366;-65
2021/09/15 08:07:09;;;;;;;11.05;7.90;;;;;;;20.11;100.00;98407.81;4904479;28;103012;-65
2021/09/15 08:09:37;;;;;;;7.38;6.55;;;;;;;20.48;100.00;98412.44;4900542;28;103117;-66
2021/09/15 08:12:06;;;;;;;5.80;5.30;;;;;;;20.63;100.00;98429.44;4902693;28;103653;-65
2021/09/15 08:14:34;;;;;;;7.82;6.72;;;;;;;20.69;100.00;98450.16;4902033;28;103461;-66
2021/09/15 08:17:02;;;;;;;6.75;5.95;;;;;;;20.73;100.00;98455.00;4897068;28;103272;-65
2021/09/15 08:19:30;;;;;;;6.47;5.47;;;;;;;20.57;100.00;98454.31;4904175;28;102661;-65
2021/09/15 08:21:59;;;;;;;8.25;4.72;;;;;;;20.71;100.00;98456.22;4897890;28;102774;-65
2021/09/15 08:24:27;;;;;;;7.00;5.05;;;;;;;20.59;100.00;98466.53;4896389;28;103325;-64
2021/09/15 08:26:55;;;;;;;6.85;5.07;;;;;;;20.50;100.00;98461.38;4895127;28;103287;-64
2021/09/15 08:29:23;;;;;;;4.55;3.85;;;;;;;20.58;100.00;98458.63;4903079;28;102774;-64
2021/09/15 08:31:51;;;;;;;6.18;3.83;;;;;;;20.72;100.00;98461.38;4900820;28;103990;-64
2021/09/15 08:34:19;;;;;;;5.25;4.55;;;;;;;20.70;100.00;98462.59;4903658;28;103348;-65
2021/09/15 08:36:47;;;;;;;10.50;4.90;;;;;;;20.72;100.00;98460.53;4895789;28;103229;-65
2021/09/15 08:39:17;;;;;;;8.88;4.55;;;;;;;20.75;100.00;98460.19;4898743;28;103049;-65
2021/09/15 08:41:46;;;;;;;8.55;4.43;;;;;;;20.81;100.00;98475.56;4900687;28;104161;-65
2021/09/15 08:44:14;;;;;;;5.22;3.97;;;;;;;20.77;99.96;98485.81;4896207;28;103945;-65
2021/09/15 08:46:46;;;;;;;6.57;4.63;;;;;;;20.71;100.00;98485.72;4897311;28;103266;-64
2021/09/15 08:49:17;;;;;;;4.35;3.95;;;;;;;20.55;100.00;98491.19;4894700;28;102679;-65
2021/09/15 08:51:45;;;;;;;5.80;3.97;;;;;;;20.55;100.00;98477.78;4899875;28;102777;-65
2021/09/15 08:54:14;;;;;;;5.70;4.32;;;;;;;20.53;100.00;98483.34;4913218;28;103378;-65
2021/09/15 08:56:44;;;;;;;4.65;3.72;;;;;;;20.60;100.00;98483.47;4899093;28;103339;-65
2021/09/15 08:59:12;;;;;;;6.53;4.28;;;;;;;20.60;100.00;98462.00;4897437;28;103397;-66
2021/09/15 09:01:44;;;;;;;4.43;4.03;;;;;;;20.73;100.00;98473.78;4895887;28;102750;-65
2021/09/15 09:09:15;;;;;;;6.03;4.20;;;;;;;20.77;100.00;98472.41;4861453;23;103767;-66
2021/09/15 09:16:01;;;;;;;4.38;3.92;;;;;;;20.74;100.00;98475.44;4777953;23;104111;-65
2021/09/15 09:19:23;;;;;;;6.82;4.68;;;;;;;20.83;99.36;98476.22;4936549;28;103209;-65
2021/09/15 09:26:13;;;;;;;5.22;4.32;;;;;;;20.76;98.46;98477.97;4917541;23;103778;-66
2021/09/15 09:28:43;;;;;;;5.70;4.32;;;;;;;20.61;98.43;98479.75;4906785;28;102876;-66
2021/09/15 09:31:13;;;;;;;5.70;4.28;;;;;;;20.52;98.52;98478.97;4923189;28;103256;-66
2021/09/15 09:34:04;;;;;;;4.95;3.85;;;;;;;20.57;98.42;98478.47;4920488;28;103228;-65
2021/09/15 09:36:32;;;;;;;4.82;3.72;;;;;;;20.52;97.68;98470.13;4917882;28;102749;-65
2021/09/15 09:39:10;;;;;;;4.38;3.40;;;;;;;20.51;97.13;98480.00;4921575;28;103720;-65
2021/09/15 09:41:39;;;;;;;3.78;3.47;;;;;;;20.60;97.52;98478.09;4887740;28;103785;-65
2021/09/15 09:44:07;;;;;;;5.00;4.00;;;;;;;20.58;96.79;98474.75;4903458;28;103130;-65
2021/09/15 09:46:41;;;;;;;3.85;3.45;;;;;;;20.65;97.34;98475.72;4920410;28;102997;-65
2021/09/15 09:49:18;;;;;;;4.65;3.45;;;;;;;20.78;96.94;98478.63;4902425;28;104649;-65
2021/09/15 09:51:46;;;;;;;4.07;3.42;;;;;;;20.87;97.31;98480.22;4930744;28;104009;-64
2021/09/15 09:54:22;;;;;;;6.18;4.07;;;;;;;20.80;97.99;98468.53;4924485;28;103189;-65
2021/09/15 09:56:54;;;;;;;6.03;4.25;;;;;;;20.98;97.06;98477.09;4925942;28;103249;-65
2021/09/15 09:59:26;;;;;;;6.80;3.70;;;;;;;21.13;95.56;98486.06;4923501;28;104027;-64
2021/09/15 10:02:00;;;;;;;4.15;3.20;;;;;;;21.34;95.22;98478.13;4923384;28;104546;-66
2021/09/15 10:04:29;;;;;;;6.13;3.53;;;;;;;21.44;95.00;98487.78;4895468;28;103205;-64
2021/09/15 10:06:58;;;;;;;3.10;2.88;;;;;;;21.65;94.39;98482.47;4902426;28;102678;-65
2021/09/15 10:09:26;;;;;;;5.03;3.42;;;;;;;21.70;94.48;98482.75;4917163;28;102985;-65
2021/09/15 10:11:56;;;;;;;3.72;3.28;;;;;;;21.66;93.71;98484.16;4928638;28;103288;-64
2021/09/15 10:14:27;;;;;;;4.20;3.40;;;;;;;21.86;93.73;98485.25;4923519;28;103260;-65
2021/09/15 10:17:01;;;;;;;4.53;3.88;;;;;;;21.86;92.84;98490.63;4919639;28;102647;-66
2021/09/15 10:19:32;;;;;;;4.05;3.65;;;;;;;22.00;92.81;98487.13;4919167;28;103914;-67
2021/09/15 10:22:02;;;;;;;5.13;3.35;;;;;;;22.02;91.24;98482.38;4907366;28;103252;-66
2021/09/15 10:24:52;;;;;;;3.08;2.88;;;;;;;22.14;91.43;98486.28;4917025;28;103069;-65
2021/09/15 10:27:22;;;;;;;3.90;3.53;;;;;;;22.23;90.09;98485.09;4919029;28;102699;-66
2021/09/15 10:30:08;;;;;;;4.18;3.85;;;;;;;21.96;90.51;98480.44;4917533;28;102748;-66
2021/09/15 10:32:39;;;;;;;4.78;3.70;;;;;;;22.05;91.47;98481.16;4915420;28;103322;-67
2021/09/15 10:35:07;;;;;;;3.35;3.05;;;;;;;22.31;91.63;98482.34;4923634;28;103264;-66
2021/09/15 10:37:54;;;;;;;4.43;3.25;;;;;;;22.19;89.52;98486.53;4920430;28;102640;-65
2021/09/15 10:40:44;;;;;;;4.05;3.65;;;;;;;22.41;89.63;98477.47;4903878;28;103048;-66
2021/09/15 10:43:52;;;;;;;4.97;3.85;;;;;;;22.37;87.97;98480.72;4904059;28;103341;-65
2021/09/15 10:46:23;;;;;;;3.97;3.50;;;;;;;22.33;89.39;98474.88;4915377;28;103198;-64
2021/09/15 10:49:19;;;;;;;4.82;3.70;;;;;;;22.42;88.36;98478.31;4919578;28;102684;-64
2021/09/15 10:51:48;;;;;;;5.40;3.40;;;;;;;22.50;89.25;98481.69;4928865;28;103677;-65
2021/09/15 10:54:39;;;;;;;3.90;3.55;;;;;;;22.48;88.90;98480.22;4917228;28;103259;-65
2021/09/15 10:57:16;;;;;;;4.15;3.75;;;;;;;22.59;88.71;98473.50;4917263;28;103208;-65
2021/09/15 10:59:55;;;;;;;5.35;3.90;;;;;;;22.57;88.80;98475.56;4917416;28;102951;-67
2021/09/15 11:02:24;;;;;;;3.88;3.47;;;;;;;22.54;90.53;98472.19;4919875;28;103920;-67
2021/09/15 11:04:54;;;;;;;4.35;3.95;;;;;;;22.56;91.03;98465.81;4919840;28;104021;-67
2021/09/15 11:07:58;;;;;;;6.63;4.57;;;;;;;22.44;90.22;98460.94;4922516;28;103029;-67
2021/09/15 11:10:45;;;;;;;4.38;3.85;;;;;;;22.43;90.16;98475.41;4917674;28;102669;-67
2021/09/15 11:13:14;;;;;;;4.80;3.60;;;;;;;22.53;90.06;98475.94;4911275;28;104377;-67
2021/09/15 11:15:44;;;;;;;6.53;4.35;;;;;;;22.60;89.12;98469.78;4926865;28;103385;-67
2021/09/15 11:18:23;;;;;;;5.40;4.05;;;;;;;22.52;90.83;98449.19;4912610;28;103300;-67
2021/09/15 11:20:58;;;;;;;6.03;4.68;;;;;;;22.64;90.94;98460.31;4912308;28;102665;-67
2021/09/15 11:23:29;;;;;;;7.15;3.97;;;;;;;22.81;88.26;98461.72;4892685;28;102837;-67
2021/09/15 11:25:58;;;;;;;4.47;3.92;;;;;;;23.09;88.89;98449.09;4910499;28;103286;-67
2021/09/15 11:28:27;;;;;;;4.82;4.00;;;;;;;23.08;88.39;98447.44;4916318;28;103228;-66
2021/09/15 11:31:01;;;;;;;4.97;3.97;;;;;;;23.07;88.68;98459.25;4912869;28;102839;-67
2021/09/15 11:33:30;;;;;;;3.95;3.50;;;;;;;23.15;86.81;98453.72;4917828;28;102748;-66
2021/09/15 11:36:03;;;;;;;4.28;3.70;;;;;;;23.09;85.52;98454.50;4913421;28;103207;-66
2021/09/15 11:38:33;;;;;;;4.32;3.92;;;;;;;22.99;86.30;98460.22;4915976;28;103254;-66
2021/09/15 11:41:05;;;;;;;3.67;3.38;;;;;;;23.21;86.56;98450.25;4914184;28;102718;-66
2021/09/15 11:43:34;;;;;;;6.60;4.20;;;;;;;23.19;86.77;98441.50;4915402;28;102899;-65
2021/09/15 11:46:03;;;;;;;3.80;3.50;;;;;;;23.12;88.04;98427.16;4918729;28;103364;-66
2021/09/15 11:48:33;;;;;;;4.47;3.50;;;;;;;23.27;87.56;98437.84;4913808;28;103233;-65
2021/09/15 11:51:16;;;;;;;5.03;3.85;;;;;;;23.06;87.52;98427.94;4917746;28;102685;-65
2021/09/15 11:53:50;;;;;;;4.10;3.15;;;;;;;23.18;87.02;98431.78;4920531;28;103325;-65
2021/09/15 11:56:21;;;;;;;6.00;4.97;;;;;;;23.00;88.71;98424.19;4915298;28;103283;-66
2021/09/15 11:58:51;;;;;;;5.22;3.72;;;;;;;23.08;89.26;98423.19;4915389;28;103034;-66